sensor_id;sensor_type;location;lat;lon;timestamp;temperature;humidity
25108;DHT22;13090;53.422;7.670;2023-06-26T00:01:32;24.50;62.10
25108;DHT22;13090;53.422;7.670;2023-06-26T00:06:53;24.50;63.00
25108;DHT22;13090;53.422;7.670;2023-06-26T00:12:16;24.30;63.10
25108;DHT22;13090;53.422;7.670;2023-06-26T00:17:37;24.20;63.80
25108;DHT22;13090;53.422;7.670;2023-06-26T00:22:58;24.20;64.10
25108;DHT22;13090;53.422;7.670;2023-06-26T00:28:21;24.10;64.30
25108;DHT22;13090;53.422;7.670;2023-06-26T00:33:41;24.00;65.00
25108;DHT22;13090;53.422;7.670;2023-06-26T00:39:03;23.90;65.30
25108;DHT22;13090;53.422;7.670;2023-06-26T00:44:25;23.80;65.10
25108;DHT22;13090;53.422;7.670;2023-06-26T00:49:46;23.80;65.90
25108;DHT22;13090;53.422;7.670;2023-06-26T00:55:07;23.70;65.60
25108;DHT22;13090;53.422;7.670;2023-06-26T01:00:30;23.70;65.70
25108;DHT22;13090;53.422;7.670;2023-06-26T01:05:53;23.70;66.60
25108;DHT22;13090;53.422;7.670;2023-06-26T01:11:15;23.60;66.60
25108;DHT22;13090;53.422;7.670;2023-06-26T01:16:39;23.60;66.90
25108;DHT22;13090;53.422;7.670;2023-06-26T01:22:09;23.50;67.50
25108;DHT22;13090;53.422;7.670;2023-06-26T01:27:33;23.40;68.40
25108;DHT22;13090;53.422;7.670;2023-06-26T01:32:54;23.40;68.00
25108;DHT22;13090;53.422;7.670;2023-06-26T01:38:16;23.30;67.60
25108;DHT22;13090;53.422;7.670;2023-06-26T01:43:47;23.30;68.20
25108;DHT22;13090;53.422;7.670;2023-06-26T01:49:21;23.20;69.00
25108;DHT22;13090;53.422;7.670;2023-06-26T01:54:52;23.20;68.70
25108;DHT22;13090;53.422;7.670;2023-06-26T02:00:17;23.20;69.20
25108;DHT22;13090;53.422;7.670;2023-06-26T02:05:38;23.20;69.20
25108;DHT22;13090;53.422;7.670;2023-06-26T02:10:58;23.10;69.00
25108;DHT22;13090;53.422;7.670;2023-06-26T02:16:21;23.10;68.70
25108;DHT22;13090;53.422;7.670;2023-06-26T02:21:42;23.10;69.20
25108;DHT22;13090;53.422;7.670;2023-06-26T02:27:03;23.00;69.10
25108;DHT22;13090;53.422;7.670;2023-06-26T02:32:26;23.00;69.20
25108;DHT22;13090;53.422;7.670;2023-06-26T02:37:47;23.00;69.50
25108;DHT22;13090;53.422;7.670;2023-06-26T02:43:08;23.00;69.30
25108;DHT22;13090;53.422;7.670;2023-06-26T02:48:30;23.00;69.40
25108;DHT22;13090;53.422;7.670;2023-06-26T02:53:51;22.90;69.60
25108;DHT22;13090;53.422;7.670;2023-06-26T02:59:12;22.90;69.80
25108;DHT22;13090;53.422;7.670;2023-06-26T03:04:34;23.00;69.90
25108;DHT22;13090;53.422;7.670;2023-06-26T03:09:56;23.00;70.40
25108;DHT22;13090;53.422;7.670;2023-06-26T03:15:17;23.00;70.00
25108;DHT22;13090;53.422;7.670;2023-06-26T03:20:39;23.10;69.90
25108;DHT22;13090;53.422;7.670;2023-06-26T03:26:00;23.10;70.00
25108;DHT22;13090;53.422;7.670;2023-06-26T03:31:21;23.10;69.70
25108;DHT22;13090;53.422;7.670;2023-06-26T03:36:43;23.20;70.00
25108;DHT22;13090;53.422;7.670;2023-06-26T03:42:05;23.20;70.00
25108;DHT22;13090;53.422;7.670;2023-06-26T03:47:26;23.20;69.90
25108;DHT22;13090;53.422;7.670;2023-06-26T03:52:49;23.20;70.00
25108;DHT22;13090;53.422;7.670;2023-06-26T03:58:10;23.20;70.20
25108;DHT22;13090;53.422;7.670;2023-06-26T04:03:31;23.20;70.30
25108;DHT22;13090;53.422;7.670;2023-06-26T04:08:54;23.30;70.40
25108;DHT22;13090;53.422;7.670;2023-06-26T04:14:15;23.30;70.70
25108;DHT22;13090;53.422;7.670;2023-06-26T04:19:36;23.40;70.50
25108;DHT22;13090;53.422;7.670;2023-06-26T04:24:58;23.50;70.60
25108;DHT22;13090;53.422;7.670;2023-06-26T04:30:19;23.60;70.70
25108;DHT22;13090;53.422;7.670;2023-06-26T04:35:40;23.70;70.60
25108;DHT22;13090;53.422;7.670;2023-06-26T04:41:02;23.80;70.50
25108;DHT22;13090;53.422;7.670;2023-06-26T04:46:23;24.00;70.80
25108;DHT22;13090;53.422;7.670;2023-06-26T04:51:44;24.00;70.40
25108;DHT22;13090;53.422;7.670;2023-06-26T04:57:07;24.20;70.40
25108;DHT22;13090;53.422;7.670;2023-06-26T05:02:28;24.30;70.60
25108;DHT22;13090;53.422;7.670;2023-06-26T05:07:49;24.50;70.40
25108;DHT22;13090;53.422;7.670;2023-06-26T05:13:11;24.70;70.20
25108;DHT22;13090;53.422;7.670;2023-06-26T05:18:32;24.90;70.00
25108;DHT22;13090;53.422;7.670;2023-06-26T05:23:56;25.20;69.70
25108;DHT22;13090;53.422;7.670;2023-06-26T05:29:19;25.50;69.10
25108;DHT22;13090;53.422;7.670;2023-06-26T05:34:41;25.70;68.60
25108;DHT22;13090;53.422;7.670;2023-06-26T05:40:03;26.10;68.80
25108;DHT22;13090;53.422;7.670;2023-06-26T05:45:26;26.70;68.70
25108;DHT22;13090;53.422;7.670;2023-06-26T05:50:47;27.30;67.50
25108;DHT22;13090;53.422;7.670;2023-06-26T05:56:09;27.90;65.90
25108;DHT22;13090;53.422;7.670;2023-06-26T06:01:32;28.30;64.20
25108;DHT22;13090;53.422;7.670;2023-06-26T06:06:53;28.50;63.30
25108;DHT22;13090;53.422;7.670;2023-06-26T06:12:14;28.70;63.00
25108;DHT22;13090;53.422;7.670;2023-06-26T06:17:36;28.90;62.10
25108;DHT22;13090;53.422;7.670;2023-06-26T06:22:57;29.10;61.70
25108;DHT22;13090;53.422;7.670;2023-06-26T06:28:18;29.30;61.40
25108;DHT22;13090;53.422;7.670;2023-06-26T06:33:40;29.60;61.70
25108;DHT22;13090;53.422;7.670;2023-06-26T06:39:02;30.10;60.70
25108;DHT22;13090;53.422;7.670;2023-06-26T06:44:22;30.40;59.20
25108;DHT22;13090;53.422;7.670;2023-06-26T06:49:44;30.30;58.60
25108;DHT22;13090;53.422;7.670;2023-06-26T06:55:07;30.00;57.60
25108;DHT22;13090;53.422;7.670;2023-06-26T07:00:28;29.50;57.70
25108;DHT22;13090;53.422;7.670;2023-06-26T07:05:50;28.90;58.90
25108;DHT22;13090;53.422;7.670;2023-06-26T07:11:11;28.50;60.00
25108;DHT22;13090;53.422;7.670;2023-06-26T07:16:32;27.90;60.50
25108;DHT22;13090;53.422;7.670;2023-06-26T07:21:55;27.20;61.30
25108;DHT22;13090;53.422;7.670;2023-06-26T07:27:16;26.50;62.90
25108;DHT22;13090;53.422;7.670;2023-06-26T07:32:37;25.90;64.00
25108;DHT22;13090;53.422;7.670;2023-06-26T07:38:00;25.40;65.40
25108;DHT22;13090;53.422;7.670;2023-06-26T07:43:21;25.20;67.60
25108;DHT22;13090;53.422;7.670;2023-06-26T07:48:42;25.00;68.80
25108;DHT22;13090;53.422;7.670;2023-06-26T07:54:04;25.00;69.10
25108;DHT22;13090;53.422;7.670;2023-06-26T07:59:27;25.10;68.80
25108;DHT22;13090;53.422;7.670;2023-06-26T08:04:48;25.10;69.10
25108;DHT22;13090;53.422;7.670;2023-06-26T08:10:10;25.60;70.60
25108;DHT22;13090;53.422;7.670;2023-06-26T08:15:31;26.50;70.90
25108;DHT22;13090;53.422;7.670;2023-06-26T08:20:52;27.60;68.80
25108;DHT22;13090;53.422;7.670;2023-06-26T08:26:15;28.70;67.10
25108;DHT22;13090;53.422;7.670;2023-06-26T08:31:35;29.60;63.80
25108;DHT22;13090;53.422;7.670;2023-06-26T08:36:56;30.40;61.80
25108;DHT22;13090;53.422;7.670;2023-06-26T08:42:19;30.80;58.60
25108;DHT22;13090;53.422;7.670;2023-06-26T08:47:41;30.90;56.90
25108;DHT22;13090;53.422;7.670;2023-06-26T08:53:09;30.80;56.20
25108;DHT22;13090;53.422;7.670;2023-06-26T08:58:34;30.90;55.90
25108;DHT22;13090;53.422;7.670;2023-06-26T09:03:55;31.10;55.40
25108;DHT22;13090;53.422;7.670;2023-06-26T09:09:16;31.20;55.20
25108;DHT22;13090;53.422;7.670;2023-06-26T09:14:39;31.40;53.50
25108;DHT22;13090;53.422;7.670;2023-06-26T09:20:00;31.30;52.60
25108;DHT22;13090;53.422;7.670;2023-06-26T09:25:22;31.50;52.60
25108;DHT22;13090;53.422;7.670;2023-06-26T09:30:44;31.80;52.00
25108;DHT22;13090;53.422;7.670;2023-06-26T09:36:07;31.80;49.80
25108;DHT22;13090;53.422;7.670;2023-06-26T09:41:28;31.40;50.40
25108;DHT22;13090;53.422;7.670;2023-06-26T09:46:51;31.40;51.70
25108;DHT22;13090;53.422;7.670;2023-06-26T09:52:14;31.90;51.70
25108;DHT22;13090;53.422;7.670;2023-06-26T09:57:35;32.30;50.10
25108;DHT22;13090;53.422;7.670;2023-06-26T10:02:58;32.60;48.70
25108;DHT22;13090;53.422;7.670;2023-06-26T10:08:20;32.30;47.10
25108;DHT22;13090;53.422;7.670;2023-06-26T10:13:43;31.70;47.80
25108;DHT22;13090;53.422;7.670;2023-06-26T10:19:10;31.60;48.60
25108;DHT22;13090;53.422;7.670;2023-06-26T10:24:33;31.80;48.90
25108;DHT22;13090;53.422;7.670;2023-06-26T10:29:56;32.10;47.80
25108;DHT22;13090;53.422;7.670;2023-06-26T10:35:20;32.20;47.40
25108;DHT22;13090;53.422;7.670;2023-06-26T10:40:43;32.10;46.70
25108;DHT22;13090;53.422;7.670;2023-06-26T10:46:04;31.90;46.30
25108;DHT22;13090;53.422;7.670;2023-06-26T10:51:30;31.60;46.10
25108;DHT22;13090;53.422;7.670;2023-06-26T10:56:55;31.20;46.10
25108;DHT22;13090;53.422;7.670;2023-06-26T11:02:16;30.80;46.60
25108;DHT22;13090;53.422;7.670;2023-06-26T11:08:05;30.70;47.40
25108;DHT22;13090;53.422;7.670;2023-06-26T11:13:27;30.40;46.50
25108;DHT22;13090;53.422;7.670;2023-06-26T11:18:49;30.10;46.80
25108;DHT22;13090;53.422;7.670;2023-06-26T11:24:13;29.80;47.30
25108;DHT22;13090;53.422;7.670;2023-06-26T11:29:35;29.60;47.40
25108;DHT22;13090;53.422;7.670;2023-06-26T11:34:55;29.40;47.60
25108;DHT22;13090;53.422;7.670;2023-06-26T11:40:18;29.30;48.00
25108;DHT22;13090;53.422;7.670;2023-06-26T11:45:39;29.40;47.50
25108;DHT22;13090;53.422;7.670;2023-06-26T11:51:00;29.50;47.90
25108;DHT22;13090;53.422;7.670;2023-06-26T11:56:26;29.70;48.20
25108;DHT22;13090;53.422;7.670;2023-06-26T12:01:47;29.80;47.40
25108;DHT22;13090;53.422;7.670;2023-06-26T12:07:09;29.80;47.40
25108;DHT22;13090;53.422;7.670;2023-06-26T12:12:33;29.80;46.20
25108;DHT22;13090;53.422;7.670;2023-06-26T12:17:54;29.70;45.30
25108;DHT22;13090;53.422;7.670;2023-06-26T12:23:15;29.50;46.10
25108;DHT22;13090;53.422;7.670;2023-06-26T12:28:37;29.30;45.40
25108;DHT22;13090;53.422;7.670;2023-06-26T12:33:59;29.10;46.10
25108;DHT22;13090;53.422;7.670;2023-06-26T12:39:21;29.00;46.00
25108;DHT22;13090;53.422;7.670;2023-06-26T12:44:43;28.80;46.00
25108;DHT22;13090;53.422;7.670;2023-06-26T12:50:06;28.70;46.10
25108;DHT22;13090;53.422;7.670;2023-06-26T12:55:27;28.60;46.70
25108;DHT22;13090;53.422;7.670;2023-06-26T13:00:49;28.60;46.80
25108;DHT22;13090;53.422;7.670;2023-06-26T13:06:10;28.50;46.50
25108;DHT22;13090;53.422;7.670;2023-06-26T13:11:31;28.60;47.10
25108;DHT22;13090;53.422;7.670;2023-06-26T13:16:53;28.70;46.50
25108;DHT22;13090;53.422;7.670;2023-06-26T13:22:14;28.90;46.40
25108;DHT22;13090;53.422;7.670;2023-06-26T13:27:35;29.00;46.40
25108;DHT22;13090;53.422;7.670;2023-06-26T13:32:58;29.10;45.40
25108;DHT22;13090;53.422;7.670;2023-06-26T13:38:19;29.10;45.70
25108;DHT22;13090;53.422;7.670;2023-06-26T13:43:40;29.20;45.80
25108;DHT22;13090;53.422;7.670;2023-06-26T13:49:03;29.30;45.80
25108;DHT22;13090;53.422;7.670;2023-06-26T13:54:24;29.40;45.00
25108;DHT22;13090;53.422;7.670;2023-06-26T13:59:45;29.30;44.80
25108;DHT22;13090;53.422;7.670;2023-06-26T14:05:09;29.10;45.00
25108;DHT22;13090;53.422;7.670;2023-06-26T14:10:30;28.80;45.00
25108;DHT22;13090;53.422;7.670;2023-06-26T14:15:52;28.70;45.60
25108;DHT22;13090;53.422;7.670;2023-06-26T14:21:14;28.70;45.50
25108;DHT22;13090;53.422;7.670;2023-06-26T14:26:35;28.70;45.20
25108;DHT22;13090;53.422;7.670;2023-06-26T14:31:56;28.70;45.30
25108;DHT22;13090;53.422;7.670;2023-06-26T14:37:18;28.60;45.70
25108;DHT22;13090;53.422;7.670;2023-06-26T14:42:39;28.50;45.90
25108;DHT22;13090;53.422;7.670;2023-06-26T14:48:01;28.40;46.00
25108;DHT22;13090;53.422;7.670;2023-06-26T14:53:23;28.40;46.20
25108;DHT22;13090;53.422;7.670;2023-06-26T14:58:44;28.40;46.50
25108;DHT22;13090;53.422;7.670;2023-06-26T15:04:05;28.40;46.80
25108;DHT22;13090;53.422;7.670;2023-06-26T15:09:28;28.40;46.80
25108;DHT22;13090;53.422;7.670;2023-06-26T15:14:49;28.20;46.60
25108;DHT22;13090;53.422;7.670;2023-06-26T15:20:10;28.00;46.80
25108;DHT22;13090;53.422;7.670;2023-06-26T15:25:33;27.80;47.30
25108;DHT22;13090;53.422;7.670;2023-06-26T15:30:54;27.60;47.60
25108;DHT22;13090;53.422;7.670;2023-06-26T15:36:15;27.40;47.70
25108;DHT22;13090;53.422;7.670;2023-06-26T15:41:37;27.10;47.80
25108;DHT22;13090;53.422;7.670;2023-06-26T15:46:58;26.90;48.30
25108;DHT22;13090;53.422;7.670;2023-06-26T15:52:19;26.80;48.50
25108;DHT22;13090;53.422;7.670;2023-06-26T15:57:41;26.70;48.20
25108;DHT22;13090;53.422;7.670;2023-06-26T16:03:02;26.50;48.80
25108;DHT22;13090;53.422;7.670;2023-06-26T16:08:24;26.40;49.20
25108;DHT22;13090;53.422;7.670;2023-06-26T16:13:46;26.30;49.40
25108;DHT22;13090;53.422;7.670;2023-06-26T16:19:07;26.10;49.40
25108;DHT22;13090;53.422;7.670;2023-06-26T16:24:28;26.10;49.80
25108;DHT22;13090;53.422;7.670;2023-06-26T16:29:50;26.10;49.80
25108;DHT22;13090;53.422;7.670;2023-06-26T16:35:11;26.00;49.90
25108;DHT22;13090;53.422;7.670;2023-06-26T16:40:32;26.00;49.90
25108;DHT22;13090;53.422;7.670;2023-06-26T16:45:54;26.00;49.90
25108;DHT22;13090;53.422;7.670;2023-06-26T16:51:15;26.00;49.90
25108;DHT22;13090;53.422;7.670;2023-06-26T16:56:36;25.90;49.20
25108;DHT22;13090;53.422;7.670;2023-06-26T17:01:59;25.80;48.80
25108;DHT22;13090;53.422;7.670;2023-06-26T17:07:20;25.60;48.70
25108;DHT22;13090;53.422;7.670;2023-06-26T17:12:40;25.40;48.70
25108;DHT22;13090;53.422;7.670;2023-06-26T17:18:03;25.30;49.10
25108;DHT22;13090;53.422;7.670;2023-06-26T17:23:24;25.10;49.30
25108;DHT22;13090;53.422;7.670;2023-06-26T17:28:45;25.00;49.30
25108;DHT22;13090;53.422;7.670;2023-06-26T17:34:07;24.90;49.20
25108;DHT22;13090;53.422;7.670;2023-06-26T17:39:28;24.80;49.10
25108;DHT22;13090;53.422;7.670;2023-06-26T17:44:49;24.70;49.10
25108;DHT22;13090;53.422;7.670;2023-06-26T17:50:11;24.50;49.10
25108;DHT22;13090;53.422;7.670;2023-06-26T17:55:32;24.30;48.90
25108;DHT22;13090;53.422;7.670;2023-06-26T18:00:53;24.10;49.30
25108;DHT22;13090;53.422;7.670;2023-06-26T18:06:16;23.90;49.60
25108;DHT22;13090;53.422;7.670;2023-06-26T18:11:38;23.80;50.10
25108;DHT22;13090;53.422;7.670;2023-06-26T18:16:58;23.60;50.30
25108;DHT22;13090;53.422;7.670;2023-06-26T18:22:21;23.60;50.40
25108;DHT22;13090;53.422;7.670;2023-06-26T18:27:41;23.50;50.70
25108;DHT22;13090;53.422;7.670;2023-06-26T18:33:02;23.30;50.80
25108;DHT22;13090;53.422;7.670;2023-06-26T18:38:25;23.20;51.10
25108;DHT22;13090;53.422;7.670;2023-06-26T18:43:46;23.10;51.50
25108;DHT22;13090;53.422;7.670;2023-06-26T18:49:06;23.00;51.70
25108;DHT22;13090;53.422;7.670;2023-06-26T18:54:29;22.90;51.70
25108;DHT22;13090;53.422;7.670;2023-06-26T18:59:53;22.90;51.90
25108;DHT22;13090;53.422;7.670;2023-06-26T19:05:15;22.70;51.90
25108;DHT22;13090;53.422;7.670;2023-06-26T19:10:37;22.60;52.10
25108;DHT22;13090;53.422;7.670;2023-06-26T19:15:58;22.40;52.30
25108;DHT22;13090;53.422;7.670;2023-06-26T19:21:19;22.30;52.70
25108;DHT22;13090;53.422;7.670;2023-06-26T19:26:41;22.10;52.80
25108;DHT22;13090;53.422;7.670;2023-06-26T19:32:03;22.00;53.10
25108;DHT22;13090;53.422;7.670;2023-06-26T19:37:24;21.90;53.30
25108;DHT22;13090;53.422;7.670;2023-06-26T19:42:46;21.80;53.50
25108;DHT22;13090;53.422;7.670;2023-06-26T19:48:07;21.60;53.80
25108;DHT22;13090;53.422;7.670;2023-06-26T19:53:28;21.60;54.00
25108;DHT22;13090;53.422;7.670;2023-06-26T19:58:50;21.50;54.20
25108;DHT22;13090;53.422;7.670;2023-06-26T20:04:12;21.40;54.40
25108;DHT22;13090;53.422;7.670;2023-06-26T20:09:35;21.30;55.20
25108;DHT22;13090;53.422;7.670;2023-06-26T20:14:58;21.20;54.60
25108;DHT22;13090;53.422;7.670;2023-06-26T20:20:19;21.00;54.90
25108;DHT22;13090;53.422;7.670;2023-06-26T20:25:40;20.90;55.10
25108;DHT22;13090;53.422;7.670;2023-06-26T20:31:03;20.80;55.30
25108;DHT22;13090;53.422;7.670;2023-06-26T20:36:24;20.70;55.50
25108;DHT22;13090;53.422;7.670;2023-06-26T20:41:45;20.60;55.50
25108;DHT22;13090;53.422;7.670;2023-06-26T20:47:10;20.60;55.90
25108;DHT22;13090;53.422;7.670;2023-06-26T20:52:32;20.40;56.00
25108;DHT22;13090;53.422;7.670;2023-06-26T20:57:53;20.40;56.90
25108;DHT22;13090;53.422;7.670;2023-06-26T21:03:15;20.30;56.30
25108;DHT22;13090;53.422;7.670;2023-06-26T21:08:36;20.20;56.60
25108;DHT22;13090;53.422;7.670;2023-06-26T21:13:56;20.10;56.60
25108;DHT22;13090;53.422;7.670;2023-06-26T21:19:19;20.00;56.90
25108;DHT22;13090;53.422;7.670;2023-06-26T21:24:39;19.90;57.20
25108;DHT22;13090;53.422;7.670;2023-06-26T21:30:00;19.80;57.30
25108;DHT22;13090;53.422;7.670;2023-06-26T21:35:22;19.80;57.60
25108;DHT22;13090;53.422;7.670;2023-06-26T21:41:02;19.70;57.90
25108;DHT22;13090;53.422;7.670;2023-06-26T21:46:23;19.60;57.90
25108;DHT22;13090;53.422;7.670;2023-06-26T21:51:45;19.60;58.30
25108;DHT22;13090;53.422;7.670;2023-06-26T21:57:07;19.50;58.70
25108;DHT22;13090;53.422;7.670;2023-06-26T22:02:27;19.40;58.80
25108;DHT22;13090;53.422;7.670;2023-06-26T22:07:50;19.40;59.10
25108;DHT22;13090;53.422;7.670;2023-06-26T22:13:15;19.30;59.60
25108;DHT22;13090;53.422;7.670;2023-06-26T22:18:36;19.30;59.10
25108;DHT22;13090;53.422;7.670;2023-06-26T22:23:58;19.20;59.20
25108;DHT22;13090;53.422;7.670;2023-06-26T22:29:19;19.10;59.90
25108;DHT22;13090;53.422;7.670;2023-06-26T22:34:39;19.10;60.10
25108;DHT22;13090;53.422;7.670;2023-06-26T22:40:02;19.10;60.30
25108;DHT22;13090;53.422;7.670;2023-06-26T22:45:23;19.00;60.80
25108;DHT22;13090;53.422;7.670;2023-06-26T22:50:44;18.90;60.90
25108;DHT22;13090;53.422;7.670;2023-06-26T22:56:06;18.80;61.30
25108;DHT22;13090;53.422;7.670;2023-06-26T23:01:27;18.70;62.20
25108;DHT22;13090;53.422;7.670;2023-06-26T23:06:48;18.60;62.10
25108;DHT22;13090;53.422;7.670;2023-06-26T23:12:10;18.60;62.60
25108;DHT22;13090;53.422;7.670;2023-06-26T23:17:31;18.50;63.20
25108;DHT22;13090;53.422;7.670;2023-06-26T23:22:52;18.40;63.40
25108;DHT22;13090;53.422;7.670;2023-06-26T23:28:14;18.30;63.60
25108;DHT22;13090;53.422;7.670;2023-06-26T23:33:35;18.30;64.20
25108;DHT22;13090;53.422;7.670;2023-06-26T23:38:56;18.20;64.40
25108;DHT22;13090;53.422;7.670;2023-06-26T23:44:18;18.20;64.50
25108;DHT22;13090;53.422;7.670;2023-06-26T23:49:39;18.20;65.20
25108;DHT22;13090;53.422;7.670;2023-06-26T23:55:00;18.10;65.10
